Time,TemperatureF,DewpointF,PressureIn,WindDirection,WindDirectionDegrees,WindSpeedMPH,WindSpeedGustMPH,Humidity,HourlyPrecipIn,Conditions,Clouds,dailyrainin,SoftwareType,DateUTC
2013-07-05 00:01:00,76.4,72.6,30.22,SE,127,0.0,1.0,88,0.00,,,0.00,VWS V14.01,2013-07-05 04:01:00,
2013-07-05 00:02:00,76.4,72.9,30.22,SE,127,0.0,1.0,89,0.00,,,0.00,VWS V14.01,2013-07-05 04:02:00,
2013-07-05 00:07:00,76.2,72.7,30.22,SE,128,2.0,2.0,89,0.00,,,0.00,VWS V14.01,2013-07-05 04:07:00,
2013-07-05 00:12:00,76.0,72.5,30.22,SE,128,1.0,2.0,89,0.00,,,0.00,VWS V14.01,2013-07-05 04:12:00,
2013-07-05 00:17:00,75.8,72.7,30.23,ENE,66,0.0,2.0,90,0.00,,,0.00,VWS V14.01,2013-07-05 04:17:00,
2013-07-05 00:22:00,75.7,72.6,30.23,SE,137,0.0,3.0,90,0.00,,,0.00,VWS V14.01,2013-07-05 04:22:00,
2013-07-05 00:27:00,75.7,72.6,30.23,South,169,0.0,3.0,90,0.00,,,0.00,VWS V14.01,2013-07-05 04:27:00,
2013-07-05 00:32:00,75.7,72.6,30.23,SSE,161,1.0,2.0,90,0.00,,,0.00,VWS V14.01,2013-07-05 04:32:00,
2013-07-05 00:37:00,75.6,72.8,30.23,ENE,68,0.0,2.0,91,0.00,,,0.00,VWS V14.01,2013-07-05 04:37:00,
2013-07-05 00:42:00,75.7,72.9,30.23,SE,133,0.0,4.0,91,0.00,,,0.00,VWS V14.01,2013-07-05 04:42:00,
2013-07-05 00:47:00,75.7,72.9,30.23,SSE,165,0.0,6.0,91,0.00,,,0.00,VWS V14.01,2013-07-05 04:47:00,
2013-07-05 00:52:00,75.7,72.9,30.23,SE,142,2.0,6.0,91,0.00,,,0.00,VWS V14.01,2013-07-05 04:52:00,
2013-07-05 00:57:00,75.7,72.9,30.23,ESE,117,1.0,6.0,91,0.00,,,0.00,VWS V14.01,2013-07-05 04:57:00,
2013-07-05 01:02:00,75.7,72.9,30.23,SSW,207,1.0,3.0,91,0.00,,,0.00,VWS V14.01,2013-07-05 05:02:00,
2013-07-05 01:07:00,75.7,72.9,30.24,SE,140,0.0,5.0,91,0.00,,,0.00,VWS V14.01,2013-07-05 05:07:00,
2013-07-05 01:12:00,75.7,72.9,30.23,SSE,155,0.0,5.0,91,0.00,,,0.00,VWS V14.01,2013-07-05 05:12:00,
2013-07-05 01:18:00,75.7,72.9,30.24,SSE,165,1.0,5.0,91,0.00,,,0.00,VWS V14.01,2013-07-05 05:18:00,
2013-07-05 01:23:00,75.7,72.9,30.23,SE,142,0.0,5.0,91,0.00,,,0.00,VWS V14.01,2013-07-05 05:23:00,
2013-07-05 01:28:00,75.7,73.2,30.23,SE,131,1.0,5.0,92,0.00,,,0.00,VWS V14.01,2013-07-05 05:28:00,
2013-07-05 01:33:00,75.6,73.1,30.23,East,94,0.0,4.0,92,0.00,,,0.00,VWS V14.01,2013-07-05 05:33:00,
2013-07-05 01:38:00,75.6,73.1,30.23,SSW,202,0.0,4.0,92,0.00,,,0.00,VWS V14.01,2013-07-05 05:38:00,
2013-07-05 01:43:00,75.5,73.0,30.23,SE,139,0.0,4.0,92,0.00,,,0.00,VWS V14.01,2013-07-05 05:43:00,
2013-07-05 01:48:00,75.5,73.0,30.23,SE,138,2.0,5.0,92,0.00,,,0.00,VWS V14.01,2013-07-05 05:48:00,
2013-07-05 01:53:00,75.5,73.0,30.23,SSE,157,2.0,6.0,92,0.00,,,0.00,VWS V14.01,2013-07-05 05:53:00,
2013-07-05 01:58:00,75.4,72.9,30.23,SSE,149,0.0,6.0,92,0.00,,,0.00,VWS V14.01,2013-07-05 05:58:00,
2013-07-05 02:03:00,75.4,72.9,30.23,SE,140,0.0,4.0,92,0.00,,,0.00,VWS V14.01,2013-07-05 06:03:00,
2013-07-05 02:08:00,75.3,72.8,30.23,SE,144,0.0,4.0,92,0.00,,,0.00,VWS V14.01,2013-07-05 06:08:00,
2013-07-05 02:13:00,75.3,72.8,30.23,SSE,155,2.0,4.0,92,0.00,,,0.00,VWS V14.01,2013-07-05 06:13:00,
2013-07-05 02:18:00,75.2,73.0,30.23,SW,224,0.0,4.0,93,0.00,,,0.00,VWS V14.01,2013-07-05 06:18:00,
2013-07-05 02:23:00,75.3,73.1,30.23,SE,128,2.0,4.0,93,0.00,,,0.00,VWS V14.01,2013-07-05 06:23:00,
2013-07-05 02:28:00,75.3,73.1,30.23,ESE,105,2.0,4.0,93,0.00,,,0.00,VWS V14.01,2013-07-05 06:28:00,
2013-07-05 02:33:00,75.3,73.1,30.23,SSE,157,0.0,2.0,93,0.00,,,0.00,VWS V14.01,2013-07-05 06:33:00,
2013-07-05 02:38:00,75.2,73.0,30.23,SE,138,0.0,5.0,93,0.00,,,0.00,VWS V14.01,2013-07-05 06:38:00,
2013-07-05 02:43:00,75.3,73.1,30.22,South,190,0.0,5.0,93,0.00,,,0.00,VWS V14.01,2013-07-05 06:43:00,
2013-07-05 02:48:00,75.2,73.0,30.23,SSE,163,1.0,5.0,93,0.00,,,0.00,VWS V14.01,2013-07-05 06:48:00,
2013-07-05 02:53:00,75.2,73.0,30.22,SSE,155,0.0,5.0,93,0.00,,,0.00,VWS V14.01,2013-07-05 06:53:00,
2013-07-05 02:58:00,75.1,72.9,30.22,SSE,165,0.0,5.0,93,0.00,,,0.00,VWS V14.01,2013-07-05 06:58:00,
2013-07-05 03:03:00,75.1,72.9,30.22,SSE,154,0.0,2.0,93,0.00,,,0.00,VWS V14.01,2013-07-05 07:03:00,
2013-07-05 03:08:00,75.2,73.0,30.22,SW,227,0.0,2.0,93,0.00,,,0.00,VWS V14.01,2013-07-05 07:08:00,
2013-07-05 03:13:00,75.1,72.9,30.22,South,190,0.0,4.0,93,0.00,,,0.00,VWS V14.01,2013-07-05 07:13:00,
2013-07-05 03:19:00,75.1,72.9,30.22,SSW,194,1.0,4.0,93,0.00,,,0.00,VWS V14.01,2013-07-05 07:19:00,
2013-07-05 03:24:00,75.1,72.9,30.22,WNW,284,0.0,4.0,93,0.00,,,0.00,VWS V14.01,2013-07-05 07:24:00,
2013-07-05 03:29:00,75.1,72.9,30.22,SSW,198,0.0,4.0,93,0.00,,,0.00,VWS V14.01,2013-07-05 07:29:00,
2013-07-05 03:34:00,75.0,72.8,30.22,SSW,199,0.0,0.0,93,0.00,,,0.00,VWS V14.01,2013-07-05 07:34:00,
2013-07-05 03:39:00,74.9,72.7,30.22,SSW,196,0.0,1.0,93,0.00,,,0.00,VWS V14.01,2013-07-05 07:39:00,
2013-07-05 03:44:00,74.9,72.7,30.22,SSW,198,0.0,1.0,93,0.00,,,0.00,VWS V14.01,2013-07-05 07:44:00,
2013-07-05 03:49:00,74.9,72.7,30.22,SSW,198,0.0,1.0,93,0.00,,,0.00,VWS V14.01,2013-07-05 07:49:00,
2013-07-05 03:54:00,74.8,72.6,30.22,SSE,156,0.0,2.0,93,0.00,,,0.00,VWS V14.01,2013-07-05 07:54:00,
2013-07-05 03:59:00,74.7,72.6,30.22,SE,137,1.0,2.0,93,0.00,,,0.00,VWS V14.01,2013-07-05 07:59:00,
2013-07-05 04:04:00,74.6,72.8,30.22,SE,137,0.0,1.0,94,0.00,,,0.00,VWS V14.01,2013-07-05 08:04:00,
2013-07-05 04:09:00,74.5,72.7,30.22,SE,136,2.0,2.0,94,0.00,,,0.00,VWS V14.01,2013-07-05 08:09:00,
2013-07-05 04:14:00,74.4,72.6,30.22,South,190,0.0,2.0,94,0.00,,,0.00,VWS V14.01,2013-07-05 08:14:00,
2013-07-05 04:19:00,74.3,72.5,30.22,SSE,153,2.0,3.0,94,0.00,,,0.00,VWS V14.01,2013-07-05 08:19:00,
2013-07-05 04:24:00,74.2,72.4,30.22,South,182,2.0,3.0,94,0.00,,,0.00,VWS V14.01,2013-07-05 08:24:00,
2013-07-05 04:29:00,74.0,72.2,30.22,SE,146,1.0,3.0,94,0.00,,,0.00,VWS V14.01,2013-07-05 08:29:00,
2013-07-05 04:34:00,73.9,72.4,30.22,SE,145,2.0,8.0,95,0.00,,,0.00,VWS V14.01,2013-07-05 08:34:00,
2013-07-05 04:39:00,73.9,72.4,30.22,SSE,168,2.0,8.0,95,0.00,,,0.00,VWS V14.01,2013-07-05 08:39:00,
2013-07-05 04:44:00,73.8,72.3,30.22,SSE,152,0.0,8.0,95,0.00,,,0.00,VWS V14.01,2013-07-05 08:44:00,
2013-07-05 04:49:00,73.8,72.3,30.22,SE,140,1.0,8.0,95,0.00,,,0.00,VWS V14.01,2013-07-05 08:49:00,
2013-07-05 04:54:00,73.8,72.3,30.22,SE,146,0.0,8.0,95,0.00,,,0.00,VWS V14.01,2013-07-05 08:54:00,
2013-07-05 04:59:00,73.9,72.4,30.22,SE,145,0.0,8.0,95,0.00,,,0.00,VWS V14.01,2013-07-05 08:59:00,
2013-07-05 05:04:00,73.9,72.4,30.22,SSE,148,0.0,1.0,95,0.00,,,0.00,VWS V14.01,2013-07-05 09:04:00,
2013-07-05 05:10:00,73.9,72.4,30.22,SE,128,0.0,1.0,95,0.00,,,0.00,VWS V14.01,2013-07-05 09:10:00,
2013-07-05 05:15:00,73.9,72.4,30.22,SE,128,0.0,1.0,95,0.00,,,0.00,VWS V14.01,2013-07-05 09:15:00,
2013-07-05 05:20:00,73.9,72.4,30.22,SSE,167,0.0,1.0,95,0.00,,,0.00,VWS V14.01,2013-07-05 09:20:00,
2013-07-05 05:25:00,73.9,72.4,30.22,SSE,167,0.0,1.0,95,0.00,,,0.00,VWS V14.01,2013-07-05 09:25:00,
2013-07-05 05:30:00,73.9,72.4,30.23,SSE,163,0.0,1.0,95,0.00,,,0.00,VWS V14.01,2013-07-05 09:30:00,
2013-07-05 05:35:00,73.7,72.2,30.23,NE,38,0.0,1.0,95,0.00,,,0.00,VWS V14.01,2013-07-05 09:35:00,
2013-07-05 05:40:00,73.7,72.2,30.23,NE,38,0.0,1.0,95,0.00,,,0.00,VWS V14.01,2013-07-05 09:40:00,
2013-07-05 05:45:00,73.7,72.2,30.23,SE,124,0.0,2.0,95,0.00,,,0.00,VWS V14.01,2013-07-05 09:45:00,
2013-07-05 05:50:00,73.6,72.1,30.23,SE,125,0.0,2.0,95,0.00,,,0.00,VWS V14.01,2013-07-05 09:50:00,
2013-07-05 05:55:00,73.6,72.1,30.23,SE,125,0.0,2.0,95,0.00,,,0.00,VWS V14.01,2013-07-05 09:55:00,
2013-07-05 06:00:00,73.7,72.2,30.23,SE,125,0.0,1.0,95,0.00,,,0.00,VWS V14.01,2013-07-05 10:00:00,
2013-07-05 06:05:00,73.6,72.1,30.23,SE,126,0.0,1.0,95,0.00,,,0.00,VWS V14.01,2013-07-05 10:05:00,
2013-07-05 06:10:00,73.6,72.1,30.23,SE,126,0.0,1.0,95,0.00,,,0.00,VWS V14.01,2013-07-05 10:10:00,
2013-07-05 06:15:00,73.6,72.1,30.23,SE,126,0.0,1.0,95,0.00,,,0.00,VWS V14.01,2013-07-05 10:15:00,
2013-07-05 06:20:00,73.7,72.2,30.23,SE,128,0.0,1.0,95,0.00,,,0.00,VWS V14.01,2013-07-05 10:20:00,
2013-07-05 06:26:00,73.7,72.2,30.23,ESE,110,1.0,3.0,95,0.00,,,0.00,VWS V14.01,2013-07-05 10:26:00,
2013-07-05 06:31:00,73.8,72.3,30.23,SE,131,2.0,3.0,95,0.00,,,0.00,VWS V14.01,2013-07-05 10:31:00,
2013-07-05 06:36:00,73.9,72.1,30.23,SW,223,0.0,4.0,94,0.00,,,0.00,VWS V14.01,2013-07-05 10:36:00,
2013-07-05 06:41:00,74.0,72.2,30.23,SSE,159,0.0,4.0,94,0.00,,,0.00,VWS V14.01,2013-07-05 10:41:00,
2013-07-05 06:46:00,74.2,72.4,30.23,SE,140,0.0,4.0,94,0.00,,,0.00,VWS V14.01,2013-07-05 10:46:00,
2013-07-05 06:51:00,74.3,72.5,30.23,SW,216,2.0,4.0,94,0.00,,,0.00,VWS V14.01,2013-07-05 10:51:00,
2013-07-05 06:56:00,74.4,72.6,30.24,ESE,106,0.0,4.0,94,0.00,,,0.00,VWS V14.01,2013-07-05 10:56:00,
2013-07-05 07:01:00,74.6,72.8,30.24,ESE,123,0.0,2.0,94,0.00,,,0.00,VWS V14.01,2013-07-05 11:01:00,
2013-07-05 07:06:00,74.7,72.9,30.24,SW,223,1.0,3.0,94,0.00,,,0.00,VWS V14.01,2013-07-05 11:06:00,
2013-07-05 07:11:00,75.0,73.2,30.24,ESE,110,0.0,3.0,94,0.00,,,0.00,VWS V14.01,2013-07-05 11:11:00,
2013-07-05 07:16:00,75.1,72.9,30.24,South,190,0.0,3.0,93,0.00,,,0.00,VWS V14.01,2013-07-05 11:16:00,
2013-07-05 07:22:00,75.2,73.0,30.23,SW,219,0.0,6.0,93,0.00,,,0.00,VWS V14.01,2013-07-05 11:22:00,
2013-07-05 07:27:00,75.3,73.1,30.24,South,180,0.0,6.0,93,0.00,,,0.00,VWS V14.01,2013-07-05 11:27:00,
2013-07-05 07:32:00,75.5,73.3,30.24,ENE,76,0.0,4.0,93,0.00,,,0.00,VWS V14.01,2013-07-05 11:32:00,
2013-07-05 07:37:00,75.8,73.3,30.24,SW,215,1.0,7.0,92,0.00,,,0.00,VWS V14.01,2013-07-05 11:37:00,
2013-07-05 07:42:00,75.9,73.4,30.24,West,260,0.0,7.0,92,0.00,,,0.00,VWS V14.01,2013-07-05 11:42:00,
2013-07-05 07:47:00,76.2,73.4,30.24,SSE,162,1.0,7.0,91,0.00,,,0.00,VWS V14.01,2013-07-05 11:47:00,
2013-07-05 07:53:00,76.4,73.6,30.24,South,181,2.0,7.0,91,0.00,,,0.00,VWS V14.01,2013-07-05 11:53:00,
2013-07-05 07:58:00,76.6,73.8,30.24,SE,131,0.0,7.0,91,0.00,,SCT015,0.00,VWS V14.01,2013-07-05 11:58:00,
2013-07-05 08:03:00,76.8,73.7,30.24,SSE,159,0.0,5.0,90,0.00,,FEW015,0.00,VWS V14.01,2013-07-05 12:03:00,
2013-07-05 08:08:00,77.0,73.8,30.24,SSW,201,0.0,5.0,90,0.00,,FEW015,0.00,VWS V14.01,2013-07-05 12:08:00,
2013-07-05 08:13:00,77.4,73.9,30.24,WNW,302,0.0,5.0,89,0.00,,FEW015,0.00,VWS V14.01,2013-07-05 12:13:00,
2013-07-05 08:18:00,77.6,74.1,30.24,West,271,1.0,5.0,89,0.00,,FEW015,0.00,VWS V14.01,2013-07-05 12:18:00,
2013-07-05 08:23:00,78.0,74.5,30.24,SSE,167,0.0,5.0,89,0.00,,FEW015,0.00,VWS V14.01,2013-07-05 12:23:00,
2013-07-05 08:29:00,78.3,74.5,30.23,South,177,3.0,5.0,88,0.00,,FEW015,0.00,VWS V14.01,2013-07-05 12:29:00,
2013-07-05 08:34:00,78.5,74.7,30.23,SE,146,2.0,3.0,88,0.00,,FEW015,0.00,VWS V14.01,2013-07-05 12:34:00,
2013-07-05 08:39:00,78.7,74.5,30.23,South,173,3.0,5.0,87,0.00,,FEW015,0.00,VWS V14.01,2013-07-05 12:39:00,
2013-07-05 08:44:00,79.1,74.9,30.23,SSW,206,0.0,5.0,87,0.00,,FEW015,0.00,VWS V14.01,2013-07-05 12:44:00,
2013-07-05 08:49:00,79.4,75.2,30.23,South,184,2.0,5.0,87,0.00,,BKN019,0.00,VWS V14.01,2013-07-05 12:49:00,
2013-07-05 08:54:00,79.7,74.8,30.23,SE,132,3.0,5.0,85,0.00,,BKN019,0.00,VWS V14.01,2013-07-05 12:54:00,
2013-07-05 08:59:00,80.2,75.3,30.23,SSW,201,1.0,5.0,85,0.00,,BKN019,0.00,VWS V14.01,2013-07-05 12:59:00,
2013-07-05 09:04:00,80.6,75.3,30.23,SSW,209,2.0,4.0,84,0.00,,BKN019,0.00,VWS V14.01,2013-07-05 13:04:00,
2013-07-05 09:09:00,81.2,75.6,30.23,SSE,168,0.0,4.0,83,0.00,,BKN019,0.00,VWS V14.01,2013-07-05 13:09:00,
2013-07-05 09:14:00,81.7,75.3,30.23,WSW,246,3.0,4.0,81,0.00,,BKN019,0.00,VWS V14.01,2013-07-05 13:14:00,
2013-07-05 09:19:00,82.0,75.6,30.23,NW,304,0.0,4.0,81,0.00,,BKN019,0.00,VWS V14.01,2013-07-05 13:19:00,
2013-07-05 09:24:00,82.5,75.7,30.23,SW,230,3.0,4.0,80,0.00,,BKN019,0.00,VWS V14.01,2013-07-05 13:24:00,
2013-07-05 09:29:00,82.7,75.5,30.23,WSW,238,1.0,5.0,79,0.00,,BKN019,0.00,VWS V14.01,2013-07-05 13:29:00,
2013-07-05 09:34:00,82.7,75.2,30.23,SSE,163,3.0,8.0,78,0.00,,BKN019,0.00,VWS V14.01,2013-07-05 13:34:00,
2013-07-05 09:39:00,82.9,75.7,30.23,ESE,109,0.0,8.0,79,0.00,,BKN019,0.00,VWS V14.01,2013-07-05 13:39:00,
2013-07-05 09:45:00,83.2,76.0,30.22,South,180,2.0,8.0,79,0.00,,BKN019,0.00,VWS V14.01,2013-07-05 13:45:00,
2013-07-05 09:50:00,83.4,75.4,30.22,ESE,104,1.0,8.0,77,0.00,,BKN019,0.00,VWS V14.01,2013-07-05 13:50:00,
2013-07-05 09:55:00,83.5,75.5,30.22,WNW,301,2.0,8.0,77,0.00,,BKN019,0.00,VWS V14.01,2013-07-05 13:55:00,
2013-07-05 10:00:00,84.0,76.0,30.22,SE,144,1.0,1.0,77,0.00,,SCT028,0.00,VWS V14.01,2013-07-05 14:00:00,
2013-07-05 10:05:00,84.8,76.0,30.22,South,182,0.0,4.0,75,0.00,,SCT028,0.00,VWS V14.01,2013-07-05 14:05:00,
2013-07-05 10:10:00,85.3,76.5,30.22,NW,304,1.0,4.0,75,0.00,,SCT028,0.00,VWS V14.01,2013-07-05 14:10:00,
2013-07-05 10:15:00,85.8,77.0,30.22,SSW,202,0.0,5.0,75,0.00,,SCT028,0.00,VWS V14.01,2013-07-05 14:15:00,
2013-07-05 10:20:00,86.1,76.0,30.22,SSE,154,6.0,6.0,72,0.00,,SCT028,0.00,VWS V14.01,2013-07-05 14:20:00,
2013-07-05 10:25:00,85.9,76.2,30.22,SSE,161,1.0,6.0,73,0.00,,SCT028,0.00,VWS V14.01,2013-07-05 14:25:00,
2013-07-05 10:30:00,86.1,76.0,30.22,NW,321,2.0,2.0,72,0.00,,SCT028,0.00,VWS V14.01,2013-07-05 14:30:00,
2013-07-05 10:36:00,86.7,76.6,30.22,SE,128,3.0,5.0,72,0.00,,SCT028,0.00,VWS V14.01,2013-07-05 14:36:00,
2013-07-05 10:41:00,86.9,75.5,30.22,SSW,196,1.0,8.0,69,0.00,,SCT028,0.00,VWS V14.01,2013-07-05 14:41:00,
2013-07-05 10:46:00,86.7,75.8,30.22,SSW,199,0.0,8.0,70,0.00,,SCT028,0.00,VWS V14.01,2013-07-05 14:46:00,
2013-07-05 10:51:00,87.1,76.1,30.22,SSE,165,2.0,8.0,70,0.00,,SCT028,0.00,VWS V14.01,2013-07-05 14:51:00,
2013-07-05 10:56:00,87.1,76.1,30.22,SSE,151,1.0,8.0,70,0.00,,SCT028,0.00,VWS V14.01,2013-07-05 14:56:00,
2013-07-05 11:01:00,87.4,75.6,30.21,SSW,203,1.0,3.0,68,0.00,,SCT033,0.00,VWS V14.01,2013-07-05 15:01:00,
2013-07-05 11:06:00,87.4,76.0,30.21,SSW,206,0.0,6.0,69,0.00,,SCT033,0.00,VWS V14.01,2013-07-05 15:06:00,
2013-07-05 11:11:00,87.8,75.9,30.21,WNW,284,1.0,6.0,68,0.00,,SCT033,0.00,VWS V14.01,2013-07-05 15:11:00,
2013-07-05 11:16:00,88.1,76.7,30.21,South,182,0.0,6.0,69,0.00,,SCT033,0.00,VWS V14.01,2013-07-05 15:16:00,
2013-07-05 11:21:00,88.5,76.2,30.21,SSE,153,1.0,6.0,67,0.00,,SCT033,0.00,VWS V14.01,2013-07-05 15:21:00,
2013-07-05 11:26:00,88.8,76.9,30.21,WSW,244,1.0,6.0,68,0.00,,SCT033,0.00,VWS V14.01,2013-07-05 15:26:00,
2013-07-05 11:32:00,89.4,76.6,30.21,WNW,296,4.0,5.0,66,0.00,,SCT033,0.00,VWS V14.01,2013-07-05 15:32:00,
2013-07-05 11:37:00,89.5,75.7,30.21,ESE,119,0.0,5.0,64,0.00,,SCT033,0.00,VWS V14.01,2013-07-05 15:37:00,
2013-07-05 11:42:00,89.6,75.8,30.21,SSW,205,0.0,7.0,64,0.00,,SCT033,0.00,VWS V14.01,2013-07-05 15:42:00,
2013-07-05 11:47:00,90.1,76.3,30.21,West,263,1.0,7.0,64,0.00,,SCT033,0.00,VWS V14.01,2013-07-05 15:47:00,
2013-07-05 11:50:00,90.3,76.9,30.21,NW,311,5.0,7.0,65,0.00,,SCT033,0.00,VWS V14.01,2013-07-05 15:50:00,
2013-07-05 11:55:00,90.6,76.8,30.21,NW,306,2.0,7.0,64,0.00,,SCT033,0.00,VWS V14.01,2013-07-05 15:55:00,
2013-07-05 12:00:00,90.9,76.6,30.21,West,276,1.0,2.0,63,0.00,,SCT033,0.00,VWS V14.01,2013-07-05 16:00:00,
2013-07-05 12:05:00,90.8,76.0,30.20,SE,127,0.0,2.0,62,0.00,,SCT038,0.00,VWS V14.01,2013-07-05 16:05:00,
2013-07-05 12:10:00,90.4,76.1,30.20,SSW,192,0.0,3.0,63,0.00,,SCT038,0.00,VWS V14.01,2013-07-05 16:10:00,
2013-07-05 12:15:00,90.2,77.3,30.20,SSW,209,0.0,5.0,66,0.00,,SCT038,0.00,VWS V14.01,2013-07-05 16:15:00,
2013-07-05 12:20:00,90.4,75.6,30.20,SSW,211,4.0,8.0,62,0.00,,SCT038,0.00,VWS V14.01,2013-07-05 16:20:00,
2013-07-05 12:25:00,90.0,75.2,30.20,SE,141,5.0,10.0,62,0.00,,SCT038,0.00,VWS V14.01,2013-07-05 16:25:00,
2013-07-05 12:30:00,89.4,75.6,30.20,NNW,328,0.0,1.0,64,0.00,,SCT038,0.00,VWS V14.01,2013-07-05 16:30:00,
2013-07-05 12:35:00,89.8,76.0,30.20,SW,232,3.0,5.0,64,0.00,,SCT038,0.00,VWS V14.01,2013-07-05 16:35:00,
2013-07-05 12:40:00,90.0,76.2,30.20,SW,221,4.0,5.0,64,0.00,,SCT038,0.00,VWS V14.01,2013-07-05 16:40:00,
2013-07-05 12:45:00,90.0,76.2,30.20,SSW,203,0.0,5.0,64,0.00,,SCT038,0.00,VWS V14.01,2013-07-05 16:45:00,
2013-07-05 12:50:00,90.3,75.5,30.19,NW,309,2.0,5.0,62,0.00,,SCT038,0.00,VWS V14.01,2013-07-05 16:50:00,
2013-07-05 12:55:00,90.5,76.2,30.19,South,191,3.0,5.0,63,0.00,,SCT038,0.00,VWS V14.01,2013-07-05 16:55:00,
2013-07-05 13:00:00,90.1,75.8,30.19,SW,225,4.0,5.0,63,0.00,,BKN050,0.00,VWS V14.01,2013-07-05 17:00:00,
2013-07-05 13:05:00,89.7,75.9,30.19,SSE,156,1.0,7.0,64,0.00,,BKN050,0.00,VWS V14.01,2013-07-05 17:05:00,
2013-07-05 13:10:00,89.7,76.4,30.19,WNW,298,0.0,7.0,65,0.00,,BKN050,0.00,VWS V14.01,2013-07-05 17:10:00,
2013-07-05 13:15:00,90.2,76.4,30.19,SE,132,4.0,7.0,64,0.00,,BKN050,0.00,VWS V14.01,2013-07-05 17:15:00,
2013-07-05 13:16:00,90.2,75.9,30.19,South,188,2.0,7.0,63,0.00,,BKN050,0.00,VWS V14.01,2013-07-05 17:16:00,
2013-07-05 13:21:00,90.5,76.2,30.19,SW,215,3.0,7.0,63,0.00,,BKN050,0.00,VWS V14.01,2013-07-05 17:21:00,
2013-07-05 13:26:00,91.1,76.8,30.19,SSW,211,0.0,7.0,63,0.00,,BKN050,0.00,VWS V14.01,2013-07-05 17:26:00,
2013-07-05 13:31:00,91.5,75.7,30.19,SSW,207,2.0,5.0,60,0.00,,BKN050,0.00,VWS V14.01,2013-07-05 17:31:00,
2013-07-05 13:36:00,91.3,74.5,30.18,SW,219,3.0,7.0,58,0.00,,BKN050,0.00,VWS V14.01,2013-07-05 17:36:00,
2013-07-05 13:41:00,91.1,75.3,30.18,South,185,3.0,7.0,60,0.00,,BKN050,0.00,VWS V14.01,2013-07-05 17:41:00,
2013-07-05 13:46:00,91.2,74.4,30.18,WSW,254,2.0,7.0,58,0.00,,BKN050,0.00,VWS V14.01,2013-07-05 17:46:00,
2013-07-05 13:51:00,91.7,75.8,30.18,SW,236,2.0,7.0,60,0.00,,BKN050,0.00,VWS V14.01,2013-07-05 17:51:00,
2013-07-05 13:56:00,92.0,75.1,30.18,SSW,211,1.0,7.0,58,0.00,,BKN050,0.00,VWS V14.01,2013-07-05 17:56:00,
2013-07-05 14:01:00,92.3,74.9,30.18,SW,215,4.0,5.0,57,0.00,,SCT046,0.00,VWS V14.01,2013-07-05 18:01:00,
2013-07-05 14:06:00,91.8,74.9,30.18,SW,227,2.0,6.0,58,0.00,,SCT046,0.00,VWS V14.01,2013-07-05 18:06:00,
2013-07-05 14:11:00,91.1,75.3,30.17,ESE,110,0.0,9.0,60,0.00,,SCT046,0.00,VWS V14.01,2013-07-05 18:11:00,
2013-07-05 14:16:00,90.8,75.0,30.17,SE,142,2.0,9.0,60,0.00,,SCT046,0.00,VWS V14.01,2013-07-05 18:16:00,
2013-07-05 14:21:00,90.5,75.2,30.17,WNW,301,2.0,12.0,61,0.00,,SCT046,0.00,VWS V14.01,2013-07-05 18:21:00,
2013-07-05 14:22:00,90.5,75.2,30.17,NW,319,2.0,12.0,61,0.00,,SCT046,0.00,VWS V14.01,2013-07-05 18:22:00,
2013-07-05 14:27:00,91.1,74.3,30.17,West,277,1.0,12.0,58,0.00,,SCT046,0.00,VWS V14.01,2013-07-05 18:27:00,
2013-07-05 14:32:00,91.7,74.8,30.17,ESE,115,1.0,6.0,58,0.00,,SCT046,0.00,VWS V14.01,2013-07-05 18:32:00,
2013-07-05 14:37:00,91.7,74.8,30.17,SSE,167,3.0,6.0,58,0.00,,SCT046,0.00,VWS V14.01,2013-07-05 18:37:00,
2013-07-05 14:42:00,91.3,76.0,30.17,SSE,160,0.0,7.0,61,0.00,,SCT046,0.00,VWS V14.01,2013-07-05 18:42:00,
2013-07-05 14:47:00,91.5,75.2,30.17,SE,143,3.0,7.0,59,0.00,,SCT046,0.00,VWS V14.01,2013-07-05 18:47:00,
2013-07-05 14:52:00,91.9,75.0,30.17,SW,235,2.0,11.0,58,0.00,,SCT046,0.00,VWS V14.01,2013-07-05 18:52:00,
2013-07-05 14:57:00,92.3,73.8,30.16,SSW,208,8.0,11.0,55,0.00,,SCT046,0.00,VWS V14.01,2013-07-05 18:57:00,
2013-07-05 15:02:00,92.6,73.5,30.16,South,176,4.0,13.0,54,0.00,,FEW050,0.00,VWS V14.01,2013-07-05 19:02:00,
2013-07-05 15:07:00,92.4,72.8,30.16,South,187,6.0,13.0,53,0.00,,FEW050,0.00,VWS V14.01,2013-07-05 19:07:00,
2013-07-05 15:12:00,92.2,74.2,30.16,SW,228,6.0,13.0,56,0.00,,FEW050,0.00,VWS V14.01,2013-07-05 19:12:00,
2013-07-05 15:17:00,92.4,73.3,30.16,SE,132,2.0,13.0,54,0.00,,FEW050,0.00,VWS V14.01,2013-07-05 19:17:00,
2013-07-05 15:22:00,93.2,74.1,30.16,SSE,163,3.0,13.0,54,0.00,,FEW050,0.00,VWS V14.01,2013-07-05 19:22:00,
2013-07-05 15:27:00,93.3,74.7,30.16,SW,215,5.0,13.0,55,0.00,,FEW050,0.00,VWS V14.01,2013-07-05 19:27:00,
2013-07-05 15:32:00,93.4,74.8,30.16,SSE,162,2.0,5.0,55,0.00,,FEW050,0.00,VWS V14.01,2013-07-05 19:32:00,
2013-07-05 15:37:00,93.3,74.7,30.16,West,262,4.0,11.0,55,0.00,,FEW050,0.00,VWS V14.01,2013-07-05 19:37:00,
2013-07-05 15:42:00,93.1,74.0,30.16,SW,223,2.0,11.0,54,0.00,,FEW050,0.00,VWS V14.01,2013-07-05 19:42:00,
2013-07-05 15:47:00,93.3,74.2,30.15,North,355,2.0,11.0,54,0.00,,FEW050,0.00,VWS V14.01,2013-07-05 19:47:00,
2013-07-05 15:52:00,93.1,74.0,30.15,SW,221,5.0,11.0,54,0.00,,FEW050,0.00,VWS V14.01,2013-07-05 19:52:00,
2013-07-05 15:57:00,92.5,73.4,30.15,WNW,286,2.0,11.0,54,0.00,,FEW050,0.00,VWS V14.01,2013-07-05 19:57:00,
2013-07-05 16:02:00,91.9,73.4,30.15,SW,222,2.0,8.0,55,0.00,,SCT050,0.00,VWS V14.01,2013-07-05 20:02:00,
2013-07-05 16:07:00,90.9,73.0,30.15,SSE,165,2.0,11.0,56,0.00,,SCT050,0.00,VWS V14.01,2013-07-05 20:07:00,
2013-07-05 16:12:00,90.4,72.6,30.15,NNW,346,2.0,11.0,56,0.00,,SCT050,0.00,VWS V14.01,2013-07-05 20:12:00,
2013-07-05 16:17:00,90.5,72.7,30.15,WSW,243,3.0,11.0,56,0.00,,SCT050,0.00,VWS V14.01,2013-07-05 20:17:00,
2013-07-05 16:23:00,90.8,73.5,30.15,SSW,196,2.0,11.0,57,0.00,,SCT050,0.00,VWS V14.01,2013-07-05 20:23:00,
2013-07-05 16:28:00,91.5,73.6,30.14,South,174,0.0,11.0,56,0.00,,SCT050,0.00,VWS V14.01,2013-07-05 20:28:00,
2013-07-05 16:33:00,91.9,72.9,30.14,South,188,1.0,7.0,54,0.00,,SCT050,0.00,VWS V14.01,2013-07-05 20:33:00,
2013-07-05 16:38:00,92.4,73.3,30.14,South,176,1.0,7.0,54,0.00,,SCT050,0.00,VWS V14.01,2013-07-05 20:38:00,
2013-07-05 16:43:00,92.3,73.8,30.14,SW,221,3.0,8.0,55,0.00,,SCT050,0.00,VWS V14.01,2013-07-05 20:43:00,
2013-07-05 16:48:00,92.2,73.7,30.14,SE,136,3.0,8.0,55,0.00,,SCT050,0.00,VWS V14.01,2013-07-05 20:48:00,
2013-07-05 16:53:00,91.9,74.0,30.13,South,188,1.0,11.0,56,0.00,,SCT050,0.00,VWS V14.01,2013-07-05 20:53:00,
2013-07-05 16:58:00,92.2,72.6,30.13,WNW,303,6.0,11.0,53,0.00,,SCT050,0.00,VWS V14.01,2013-07-05 20:58:00,
2013-07-05 17:03:00,92.6,73.0,30.13,SSW,194,3.0,5.0,53,0.00,,FEW060,0.00,VWS V14.01,2013-07-05 21:03:00,
2013-07-05 17:08:00,92.9,72.7,30.13,WNW,287,1.0,7.0,52,0.00,,FEW060,0.00,VWS V14.01,2013-07-05 21:08:00,
2013-07-05 17:13:00,93.1,73.4,30.13,SSE,165,2.0,7.0,53,0.00,,FEW060,0.00,VWS V14.01,2013-07-05 21:13:00,
2013-07-05 17:18:00,93.1,71.7,30.13,SE,127,2.0,7.0,50,0.00,,FEW060,0.00,VWS V14.01,2013-07-05 21:18:00,
2013-07-05 17:23:00,92.9,72.7,30.13,South,187,3.0,9.0,52,0.00,,FEW060,0.00,VWS V14.01,2013-07-05 21:23:00,
2013-07-05 17:28:00,92.6,72.4,30.13,SE,140,1.0,9.0,52,0.00,,FEW060,0.00,VWS V14.01,2013-07-05 21:28:00,
2013-07-05 17:33:00,92.6,72.4,30.12,South,169,0.0,6.0,52,0.00,,FEW060,0.00,VWS V14.01,2013-07-05 21:33:00,
2013-07-05 17:38:00,92.5,73.4,30.12,ENE,63,5.0,6.0,54,0.00,,FEW060,0.00,VWS V14.01,2013-07-05 21:38:00,
2013-07-05 17:43:00,92.0,72.4,30.12,South,188,4.0,7.0,53,0.00,,FEW060,0.00,VWS V14.01,2013-07-05 21:43:00,
2013-07-05 17:48:00,91.7,72.7,30.12,ESE,121,1.0,7.0,54,0.00,,FEW060,0.00,VWS V14.01,2013-07-05 21:48:00,
2013-07-05 17:53:00,91.5,72.5,30.12,WSW,243,0.0,8.0,54,0.00,,FEW060,0.00,VWS V14.01,2013-07-05 21:53:00,
2013-07-05 17:58:00,91.9,72.9,30.12,NW,321,3.0,8.0,54,0.00,,FEW060,0.00,VWS V14.01,2013-07-05 21:58:00,
2013-07-05 18:03:00,92.2,73.7,30.12,SW,223,0.0,3.0,55,0.00,,CLR,0.00,VWS V14.01,2013-07-05 22:03:00,
2013-07-05 18:08:00,92.2,73.2,30.12,South,182,1.0,4.0,54,0.00,,CLR,0.00,VWS V14.01,2013-07-05 22:08:00,
2013-07-05 18:13:00,92.2,73.2,30.12,SSW,193,2.0,4.0,54,0.00,,CLR,0.00,VWS V14.01,2013-07-05 22:13:00,
2013-07-05 18:18:00,91.8,73.3,30.12,SSW,198,3.0,4.0,55,0.00,,CLR,0.00,VWS V14.01,2013-07-05 22:18:00,
2013-07-05 18:23:00,91.4,73.5,30.12,ESE,107,1.0,7.0,56,0.00,,CLR,0.00,VWS V14.01,2013-07-05 22:23:00,
2013-07-05 18:28:00,91.0,72.6,30.12,SSW,205,4.0,7.0,55,0.00,,CLR,0.00,VWS V14.01,2013-07-05 22:28:00,
2013-07-05 18:33:00,90.6,73.3,30.12,East,94,1.0,4.0,57,0.00,,CLR,0.00,VWS V14.01,2013-07-05 22:33:00,
2013-07-05 18:38:00,90.4,73.1,30.12,South,169,2.0,4.0,57,0.00,,CLR,0.00,VWS V14.01,2013-07-05 22:38:00,
2013-07-05 18:43:00,90.4,73.1,30.12,SW,214,5.0,6.0,57,0.00,,CLR,0.00,VWS V14.01,2013-07-05 22:43:00,
2013-07-05 18:48:00,90.3,73.5,30.12,South,172,0.0,6.0,58,0.00,,CLR,0.00,VWS V14.01,2013-07-05 22:48:00,
2013-07-05 18:53:00,90.2,73.4,30.12,NW,308,0.0,6.0,58,0.00,,CLR,0.00,VWS V14.01,2013-07-05 22:53:00,
2013-07-05 18:58:00,90.2,73.9,30.12,ESE,110,1.0,6.0,59,0.00,,CLR,0.00,VWS V14.01,2013-07-05 22:58:00,
2013-07-05 18:59:00,90.2,73.9,30.12,SSE,155,2.0,6.0,59,0.00,,CLR,0.00,VWS V14.01,2013-07-05 22:59:00,
2013-07-05 19:04:00,89.9,73.7,30.12,South,188,3.0,4.0,59,0.00,,CLR,0.00,VWS V14.01,2013-07-05 23:04:00,
2013-07-05 19:09:00,89.7,73.5,30.12,West,269,0.0,6.0,59,0.00,,CLR,0.00,VWS V14.01,2013-07-05 23:09:00,
2013-07-05 19:14:00,89.5,73.3,30.12,South,175,2.0,6.0,59,0.00,,CLR,0.00,VWS V14.01,2013-07-05 23:14:00,
2013-07-05 19:15:00,89.4,73.2,30.12,SW,214,2.0,6.0,59,0.00,,CLR,0.00,VWS V14.01,2013-07-05 23:15:00,
2013-07-05 19:20:00,89.3,73.6,30.12,SE,136,0.0,6.0,60,0.00,,CLR,0.00,VWS V14.01,2013-07-05 23:20:00,
2013-07-05 19:25:00,89.0,73.8,30.12,SSW,210,0.0,6.0,61,0.00,,CLR,0.00,VWS V14.01,2013-07-05 23:25:00,
2013-07-05 19:30:00,88.6,73.9,30.12,SE,133,0.0,2.0,62,0.00,,CLR,0.00,VWS V14.01,2013-07-05 23:30:00,
2013-07-05 19:35:00,88.2,74.5,30.12,South,171,0.0,3.0,64,0.00,,CLR,0.00,VWS V14.01,2013-07-05 23:35:00,
2013-07-05 19:40:00,87.9,74.2,30.12,SSE,153,0.0,4.0,64,0.00,,CLR,0.00,VWS V14.01,2013-07-05 23:40:00,
2013-07-05 19:45:00,87.5,74.3,30.11,South,191,2.0,4.0,65,0.00,,CLR,0.00,VWS V14.01,2013-07-05 23:45:00,
2013-07-05 19:46:00,87.4,74.2,30.11,SE,146,2.0,4.0,65,0.00,,CLR,0.00,VWS V14.01,2013-07-05 23:46:00,
2013-07-05 19:51:00,86.9,74.2,30.12,SSE,148,0.0,4.0,66,0.00,,CLR,0.00,VWS V14.01,2013-07-05 23:51:00,
2013-07-05 19:56:00,86.3,74.1,30.12,SE,132,0.0,4.0,67,0.00,,CLR,0.00,VWS V14.01,2013-07-05 23:56:00,
2013-07-05 20:01:00,85.8,74.0,30.11,South,180,2.0,3.0,68,0.00,,CLR,0.00,VWS V14.01,2013-07-06 00:01:00,
2013-07-05 20:02:00,85.7,74.4,30.11,SSE,160,1.0,3.0,69,0.00,,CLR,0.00,VWS V14.01,2013-07-06 00:02:00,
2013-07-05 20:07:00,85.1,74.2,30.11,SE,130,2.0,3.0,70,0.00,,CLR,0.00,VWS V14.01,2013-07-06 00:07:00,
2013-07-05 20:12:00,84.6,74.2,30.12,SE,132,0.0,3.0,71,0.00,,CLR,0.00,VWS V14.01,2013-07-06 00:12:00,
2013-07-05 20:17:00,84.3,74.3,30.12,SE,134,0.0,3.0,72,0.00,,CLR,0.00,VWS V14.01,2013-07-06 00:17:00,
2013-07-05 20:22:00,83.9,74.3,30.12,ESE,110,0.0,3.0,73,0.00,,CLR,0.00,VWS V14.01,2013-07-06 00:22:00,
2013-07-05 20:28:00,83.6,74.0,30.12,SE,134,1.0,3.0,73,0.00,,CLR,0.00,VWS V14.01,2013-07-06 00:28:00,
2013-07-05 20:32:00,83.3,73.8,30.12,SW,217,1.0,1.0,73,0.00,,CLR,0.00,VWS V14.01,2013-07-06 00:32:00,
2013-07-05 20:38:00,83.0,73.9,30.12,SSE,159,2.0,3.0,74,0.00,,CLR,0.00,VWS V14.01,2013-07-06 00:38:00,
2013-07-05 20:43:00,82.8,74.1,30.12,SE,146,0.0,3.0,75,0.00,,CLR,0.00,VWS V14.01,2013-07-06 00:43:00,
2013-07-05 20:48:00,82.6,73.5,30.12,SSW,211,1.0,3.0,74,0.00,,CLR,0.00,VWS V14.01,2013-07-06 00:48:00,
2013-07-05 20:53:00,82.4,73.3,30.12,ESE,119,1.0,4.0,74,0.00,,CLR,0.00,VWS V14.01,2013-07-06 00:53:00,
2013-07-05 20:58:00,82.3,73.2,30.12,SSE,168,0.0,4.0,74,0.00,,CLR,0.00,VWS V14.01,2013-07-06 00:58:00,
2013-07-05 21:03:00,82.2,73.5,30.13,SSW,205,0.0,1.0,75,0.00,,CLR,0.00,VWS V14.01,2013-07-06 01:03:00,
2013-07-05 21:08:00,82.1,73.0,30.13,SSE,155,0.0,5.0,74,0.00,,CLR,0.00,VWS V14.01,2013-07-06 01:08:00,
2013-07-05 21:13:00,82.0,72.9,30.13,SE,136,0.0,5.0,74,0.00,,CLR,0.00,VWS V14.01,2013-07-06 01:13:00,
2013-07-05 21:18:00,81.9,72.8,30.13,SSE,156,0.0,5.0,74,0.00,,CLR,0.00,VWS V14.01,2013-07-06 01:18:00,
2013-07-05 21:23:00,81.9,73.2,30.14,ESE,119,0.0,5.0,75,0.00,,CLR,0.00,VWS V14.01,2013-07-06 01:23:00,
2013-07-05 21:28:00,81.8,73.1,30.14,ESE,123,0.0,5.0,75,0.00,,CLR,0.00,VWS V14.01,2013-07-06 01:28:00,
2013-07-05 21:29:00,81.8,73.1,30.14,ESE,123,1.0,5.0,75,0.00,,CLR,0.00,VWS V14.01,2013-07-06 01:29:00,
2013-07-05 21:34:00,81.7,73.0,30.14,SE,145,1.0,3.0,75,0.00,,CLR,0.00,VWS V14.01,2013-07-06 01:34:00,
2013-07-05 21:39:00,81.6,72.9,30.14,SSE,164,0.0,6.0,75,0.00,,CLR,0.00,VWS V14.01,2013-07-06 01:39:00,
2013-07-05 21:44:00,81.6,73.3,30.14,SSE,159,0.0,6.0,76,0.00,,CLR,0.00,VWS V14.01,2013-07-06 01:44:00,
2013-07-05 21:49:00,81.6,73.3,30.14,SSE,165,0.0,6.0,76,0.00,,CLR,0.00,VWS V14.01,2013-07-06 01:49:00,
2013-07-05 21:54:00,81.5,73.2,30.15,South,178,1.0,6.0,76,0.00,,CLR,0.00,VWS V14.01,2013-07-06 01:54:00,
2013-07-05 21:59:00,81.4,73.1,30.15,SW,215,0.0,6.0,76,0.00,,CLR,0.00,VWS V14.01,2013-07-06 01:59:00,
2013-07-05 22:04:00,81.3,73.0,30.15,SSW,210,0.0,0.0,76,0.00,,CLR,0.00,VWS V14.01,2013-07-06 02:04:00,
2013-07-05 22:09:00,81.2,73.3,30.15,SSE,153,0.0,2.0,77,0.00,,CLR,0.00,VWS V14.01,2013-07-06 02:09:00,
2013-07-05 22:14:00,81.0,73.1,30.15,SSE,162,0.0,2.0,77,0.00,,CLR,0.00,VWS V14.01,2013-07-06 02:14:00,
2013-07-05 22:19:00,80.8,72.9,30.15,SSW,202,0.0,2.0,77,0.00,,CLR,0.00,VWS V14.01,2013-07-06 02:19:00,
2013-07-05 22:24:00,80.7,73.2,30.15,SSW,199,0.0,2.0,78,0.00,,CLR,0.00,VWS V14.01,2013-07-06 02:24:00,
2013-07-05 22:29:00,80.5,73.4,30.15,South,185,0.0,2.0,79,0.00,,CLR,0.00,VWS V14.01,2013-07-06 02:29:00,
2013-07-05 22:34:00,80.3,73.2,30.16,South,185,0.0,1.0,79,0.00,,CLR,0.00,VWS V14.01,2013-07-06 02:34:00,
2013-07-05 22:39:00,80.2,73.5,30.15,South,185,0.0,1.0,80,0.00,,CLR,0.00,VWS V14.01,2013-07-06 02:39:00,
2013-07-05 22:44:00,80.0,73.3,30.16,South,185,0.0,1.0,80,0.00,,CLR,0.00,VWS V14.01,2013-07-06 02:44:00,
2013-07-05 22:49:00,79.9,73.6,30.16,SW,220,0.0,1.0,81,0.00,,CLR,0.00,VWS V14.01,2013-07-06 02:49:00,
2013-07-05 22:54:00,79.7,73.7,30.16,SW,220,0.0,1.0,82,0.00,,CLR,0.00,VWS V14.01,2013-07-06 02:54:00,
2013-07-05 22:59:00,79.5,73.5,30.16,SW,221,0.0,0.0,82,0.00,,CLR,0.00,VWS V14.01,2013-07-06 02:59:00,
2013-07-05 23:05:00,79.3,74.1,30.16,SSW,203,0.0,1.0,84,0.00,,CLR,0.00,VWS V14.01,2013-07-06 03:05:00,
2013-07-05 23:10:00,79.1,73.8,30.16,SSW,203,0.0,1.0,84,0.00,,CLR,0.00,VWS V14.01,2013-07-06 03:10:00,
2013-07-05 23:15:00,78.9,73.7,30.16,East,84,0.0,1.0,84,0.00,,CLR,0.00,VWS V14.01,2013-07-06 03:15:00,
2013-07-05 23:20:00,78.7,73.5,30.16,East,91,0.0,1.0,84,0.00,,CLR,0.00,VWS V14.01,2013-07-06 03:20:00,
2013-07-05 23:25:00,78.5,73.6,30.16,East,91,0.0,1.0,85,0.00,,CLR,0.00,VWS V14.01,2013-07-06 03:25:00,
2013-07-05 23:30:00,78.3,73.4,30.16,East,91,0.0,0.0,85,0.00,,CLR,0.00,VWS V14.01,2013-07-06 03:30:00,
2013-07-05 23:35:00,78.2,73.7,30.16,East,91,0.0,0.0,86,0.00,,CLR,0.00,VWS V14.01,2013-07-06 03:35:00,
2013-07-05 23:40:00,78.0,73.5,30.16,East,91,0.0,0.0,86,0.00,,CLR,0.00,VWS V14.01,2013-07-06 03:40:00,
2013-07-05 23:45:00,78.0,73.5,30.17,East,91,0.0,0.0,86,0.00,,CLR,0.00,VWS V14.01,2013-07-06 03:45:00,
2013-07-05 23:50:00,77.9,73.4,30.16,SE,130,0.0,1.0,86,0.00,,CLR,0.00,VWS V14.01,2013-07-06 03:50:00,
2013-07-05 23:55:00,77.8,73.3,30.16,SE,130,0.0,1.0,86,0.00,,CLR,0.00,VWS V14.01,2013-07-06 03:55:00,